Time;durP1;ratioP1;P1;durP2;ratioP2;P2;SDS_P1;SDS_P2;PMS_P1;PMS_P2;Temp;Humidity;BMP_temperature;BMP_pressure;BME280_temperature;BME280_humidity;BME280_pressure;Samples;Min_cycle;Max_cycle;Signal;HPM_P1;HPM_P2
2021/12/26 00:01:13;;;;;;;18.20;10.80;;;5.40;99.90;;;;;;4732584;29;20562;-96
2021/12/26 00:03:40;;;;;;;16.00;10.37;;;5.30;99.90;;;;;;4731696;29;21251;-93
2021/12/26 00:06:15;;;;;;;16.10;11.03;;;5.30;99.90;;;;;;4731419;29;20479;-95
2021/12/26 00:08:43;;;;;;;15.10;9.87;;;5.30;99.90;;;;;;4731516;29;20518;-94
2021/12/26 00:11:09;;;;;;;12.67;10.00;;;5.40;99.90;;;;;;4727174;29;20490;-94
2021/12/26 00:13:36;;;;;;;16.40;10.43;;;5.40;99.90;;;;;;4723316;29;21713;-94
2021/12/26 00:16:03;;;;;;;14.97;10.10;;;5.50;99.90;;;;;;4729141;29;20685;-94
2021/12/26 00:18:29;;;;;;;14.20;10.40;;;5.60;99.90;;;;;;4733348;29;20487;-94
2021/12/26 00:23:31;;;;;;;14.07;9.93;;;5.60;99.90;;;;;;4742852;29;20479;-94
2021/12/26 00:25:57;;;;;;;17.23;10.80;;;5.60;99.90;;;;;;4740501;29;20517;-94
2021/12/26 00:28:25;;;;;;;13.13;9.73;;;5.50;99.90;;;;;;4734824;30;20213;-94
2021/12/26 00:30:53;;;;;;;13.00;10.20;;;5.50;99.90;;;;;;4727933;29;20940;-94
2021/12/26 00:33:21;;;;;;;15.00;10.70;;;5.50;99.90;;;;;;4738834;29;20474;-94
2021/12/26 00:35:46;;;;;;;16.83;10.87;;;5.40;99.90;;;;;;4744708;29;20565;-94
2021/12/26 00:38:13;;;;;;;16.40;10.20;;;5.30;99.90;;;;;;4735820;29;20558;-93
2021/12/26 00:40:39;;;;;;;17.67;11.13;;;5.30;99.90;;;;;;4740832;29;20217;-93
2021/12/26 00:43:09;;;;;;;17.30;12.40;;;5.20;99.90;;;;;;4730847;29;20497;-94
2021/12/26 00:45:44;;;;;;;19.60;12.47;;;5.20;99.90;;;;;;4730540;29;20484;-94
2021/12/26 00:48:10;;;;;;;16.43;10.87;;;5.10;99.90;;;;;;4740025;29;20475;-94
2021/12/26 00:50:38;;;;;;;17.20;11.63;;;5.10;99.90;;;;;;4742041;29;20470;-93
2021/12/26 00:53:04;;;;;;;16.90;11.10;;;5.10;99.90;;;;;;4739738;29;20503;-93
2021/12/26 00:55:32;;;;;;;16.40;11.60;;;5.00;99.90;;;;;;4724306;29;20460;-93
2021/12/26 00:58:03;;;;;;;17.50;11.93;;;5.00;99.90;;;;;;4722762;29;20545;-93
2021/12/26 01:00:35;;;;;;;15.53;11.63;;;5.10;99.90;;;;;;4726355;29;20458;-94
2021/12/26 01:06:03;;;;;;;17.03;11.97;;;5.30;99.90;;;;;;4748041;29;20470;-93
2021/12/26 01:08:30;;;;;;;14.87;10.90;;;5.40;99.90;;;;;;4739566;29;20456;-94
2021/12/26 01:11:34;;;;;;;14.10;10.67;;;5.40;99.90;;;;;;4741176;29;21178;-94
2021/12/26 01:14:09;;;;;;;16.60;11.80;;;5.40;99.90;;;;;;4728366;29;20499;-94
2021/12/26 01:16:35;;;;;;;16.83;11.27;;;5.40;99.90;;;;;;4739141;29;20466;-94
2021/12/26 01:19:12;;;;;;;30.03;12.50;;;5.40;99.90;;;;;;4725193;29;20614;-93
2021/12/26 01:21:46;;;;;;;23.10;12.03;;;5.30;99.90;;;;;;4728296;29;20833;-93
2021/12/26 01:24:18;;;;;;;30.10;14.33;;;5.10;99.90;;;;;;4738337;29;22947;-93
2021/12/26 01:29:45;;;;;;;63.60;15.00;;;4.90;99.90;;;;;;4740476;29;20473;-94
2021/12/26 01:32:11;;;;;;;33.10;13.80;;;4.80;99.90;;;;;;4726607;29;20468;-94
2021/12/26 01:34:36;;;;;;;50.33;15.67;;;4.80;99.90;;;;;;4736694;29;20626;-93
2021/12/26 01:37:05;;;;;;;20.53;14.00;;;4.70;99.90;;;;;;4723020;29;20229;-93
2021/12/26 01:39:30;;;;;;;20.70;12.43;;;4.70;99.90;;;;;;4718542;29;20626;-93
2021/12/26 01:42:17;;;;;;;23.30;13.63;;;4.80;99.90;;;;;;4732558;29;20736;-92
2021/12/26 01:44:45;;;;;;;41.03;13.20;;;4.90;99.90;;;;;;4733398;29;21042;-93
2021/12/26 01:47:11;;;;;;;41.03;14.70;;;5.00;99.90;;;;;;4731306;29;20821;-93
2021/12/26 01:49:47;;;;;;;18.23;12.93;;;4.90;99.90;;;;;;4731736;29;20596;-92
2021/12/26 01:52:12;;;;;;;34.80;13.10;;;4.90;99.90;;;;;;4726528;29;21396;-93
2021/12/26 01:55:00;;;;;;;18.60;11.53;;;4.90;99.90;;;;;;4719014;29;20897;-94
2021/12/26 01:57:25;;;;;;;30.13;13.47;;;4.90;99.90;;;;;;4731700;29;20444;-92
2021/12/26 02:00:02;;;;;;;31.03;14.60;;;4.90;99.90;;;;;;4717461;29;20884;-94
2021/12/26 02:02:28;;;;;;;17.60;11.30;;;4.90;99.90;;;;;;4716544;29;20467;-93
2021/12/26 02:04:54;;;;;;;20.87;12.90;;;4.90;99.90;;;;;;4729637;29;20450;-92
2021/12/26 02:07:20;;;;;;;18.33;13.63;;;5.00;99.90;;;;;;4726022;29;20527;-92
2021/12/26 02:09:45;;;;;;;28.97;12.80;;;5.10;99.90;;;;;;4718219;29;20699;-92
2021/12/26 02:12:11;;;;;;;17.20;12.63;;;5.20;99.90;;;;;;4729387;29;20199;-92
2021/12/26 02:14:40;;;;;;;23.90;11.47;;;5.20;99.90;;;;;;4715249;29;20309;-92
2021/12/26 02:17:17;;;;;;;20.87;12.23;;;5.10;99.90;;;;;;4716526;29;20479;-93
2021/12/26 02:19:43;;;;;;;17.37;12.37;;;5.10;99.90;;;;;;4735384;29;21047;-92
2021/12/26 02:22:16;;;;;;;19.80;12.83;;;5.10;99.90;;;;;;4728338;29;20493;-93
2021/12/26 02:27:31;;;;;;;19.40;13.30;;;5.30;99.90;;;;;;4733333;29;20485;-93
2021/12/26 02:30:05;;;;;;;18.73;11.93;;;5.30;99.90;;;;;;4720444;29;20490;-94
2021/12/26 02:32:35;;;;;;;17.63;12.37;;;5.40;99.90;;;;;;4737903;29;20471;-92
2021/12/26 02:35:03;;;;;;;22.33;13.97;;;5.40;99.90;;;;;;4726526;29;20480;-92
2021/12/26 02:37:29;;;;;;;21.20;13.40;;;5.40;99.90;;;;;;4721002;29;20539;-91
2021/12/26 02:39:55;;;;;;;17.03;11.90;;;5.40;99.90;;;;;;4736245;29;20463;-92
2021/12/26 02:42:22;;;;;;;14.07;10.83;;;5.40;99.90;;;;;;4732666;29;20586;-91
2021/12/26 02:44:49;;;;;;;16.33;12.00;;;5.40;99.90;;;;;;4719962;29;20819;-92
2021/12/26 02:47:36;;;;;;;15.40;11.30;;;5.40;99.90;;;;;;4737114;29;20892;-93
2021/12/26 02:50:06;;;;;;;17.00;11.93;;;5.30;99.90;;;;;;4732915;29;20454;-91
2021/12/26 02:52:32;;;;;;;15.30;10.27;;;5.30;99.90;;;;;;4725836;29;21387;-92
2021/12/26 02:54:59;;;;;;;13.50;10.47;;;5.40;99.90;;;;;;4725954;29;21163;-92
2021/12/26 02:57:27;;;;;;;14.00;11.07;;;5.40;99.90;;;;;;4732017;29;21003;-92
2021/12/26 03:00:16;;;;;;;13.50;10.30;;;5.40;99.90;;;;;;4731247;29;20489;-92
2021/12/26 03:02:48;;;;;;;13.00;9.83;;;5.50;99.90;;;;;;4756503;29;20511;-93
2021/12/26 03:05:33;;;;;;;12.23;9.40;;;5.50;99.90;;;;;;4755772;29;20830;-92
2021/12/26 03:07:59;;;;;;;10.70;9.30;;;5.50;99.90;;;;;;4728119;29;20486;-92
2021/12/26 03:10:28;;;;;;;10.57;9.00;;;5.50;99.90;;;;;;4720257;29;21781;-92
2021/12/26 03:12:59;;;;;;;11.67;9.73;;;5.50;99.90;;;;;;4717736;29;20217;-93
2021/12/26 03:15:44;;;;;;;11.97;9.07;;;5.40;99.90;;;;;;4732821;29;20459;-92
2021/12/26 03:18:17;;;;;;;11.80;9.10;;;5.40;99.90;;;;;;4721113;29;20475;-92
2021/12/26 03:20:48;;;;;;;12.50;10.10;;;5.50;99.90;;;;;;4719406;29;20586;-91
2021/12/26 03:23:17;;;;;;;11.73;8.50;;;5.50;99.90;;;;;;4721692;29;20498;-92
2021/12/26 03:28:21;;;;;;;11.60;9.00;;;5.60;99.90;;;;;;4755866;29;21555;-92
2021/12/26 03:30:46;;;;;;;10.33;7.73;;;5.50;99.90;;;;;;4745960;29;20806;-92
2021/12/26 03:33:13;;;;;;;12.10;9.17;;;5.50;99.90;;;;;;4722335;29;20501;-91
2021/12/26 03:35:40;;;;;;;12.43;9.70;;;5.40;99.90;;;;;;4720341;29;20535;-92
2021/12/26 03:38:08;;;;;;;11.40;8.77;;;5.30;99.90;;;;;;4722764;29;20485;-92
2021/12/26 03:40:34;;;;;;;11.67;8.33;;;5.30;99.90;;;;;;4737519;29;20479;-93
2021/12/26 03:43:03;;;;;;;9.57;7.67;;;5.40;99.90;;;;;;4720042;29;20502;-92
2021/12/26 03:45:29;;;;;;;10.53;7.70;;;5.50;99.90;;;;;;4731817;29;22733;-92
2021/12/26 03:47:55;;;;;;;10.27;7.57;;;5.50;99.90;;;;;;4723583;29;20461;-93
2021/12/26 03:50:23;;;;;;;11.27;8.27;;;5.50;99.90;;;;;;4721230;29;21148;-92
2021/12/26 03:52:56;;;;;;;10.23;7.47;;;5.40;99.90;;;;;;4722790;29;20462;-92
2021/12/26 03:55:24;;;;;;;9.20;7.93;;;5.10;99.90;;;;;;4719433;29;20466;-93
2021/12/26 03:57:50;;;;;;;10.20;7.63;;;5.20;99.90;;;;;;4734024;29;20498;-93
2021/12/26 04:00:16;;;;;;;11.37;7.97;;;5.30;99.90;;;;;;4719751;29;21034;-93
2021/12/26 04:02:43;;;;;;;10.57;7.90;;;5.30;99.90;;;;;;4734359;29;20286;-93
2021/12/26 04:05:09;;;;;;;10.97;7.60;;;5.30;99.90;;;;;;4719871;29;21934;-93
2021/12/26 04:07:35;;;;;;;10.53;7.50;;;5.40;99.90;;;;;;4727041;29;20950;-93
2021/12/26 04:10:01;;;;;;;10.07;7.47;;;5.50;99.90;;;;;;4724083;29;20528;-93
2021/12/26 04:12:34;;;;;;;10.00;7.70;;;5.50;99.90;;;;;;4721665;29;21240;-93
2021/12/26 04:15:00;;;;;;;10.07;8.27;;;5.40;99.90;;;;;;4738357;29;20216;-94
2021/12/26 04:17:26;;;;;;;11.97;8.30;;;5.50;99.90;;;;;;4741251;29;20481;-94
2021/12/26 04:19:52;;;;;;;10.67;7.97;;;5.50;99.90;;;;;;4729507;29;21227;-94
2021/12/26 04:22:18;;;;;;;10.40;7.63;;;5.50;99.90;;;;;;4728386;29;20247;-94
2021/12/26 04:24:43;;;;;;;9.73;7.40;;;5.50;99.90;;;;;;4725406;29;20204;-94
2021/12/26 04:27:09;;;;;;;9.17;7.30;;;5.50;99.90;;;;;;4736670;29;20220;-94
2021/12/26 04:29:37;;;;;;;8.60;7.70;;;5.60;99.90;;;;;;4731166;29;20222;-94
2021/12/26 04:32:04;;;;;;;10.23;7.13;;;5.50;99.90;;;;;;4752510;29;21127;-93
2021/12/26 04:34:30;;;;;;;11.13;7.90;;;5.40;99.90;;;;;;4750533;29;20214;-93
2021/12/26 04:36:55;;;;;;;11.70;8.27;;;5.40;99.90;;;;;;4747279;29;21263;-93
2021/12/26 04:39:21;;;;;;;11.20;8.30;;;5.50;99.90;;;;;;4743284;29;20460;-93
2021/12/26 04:41:47;;;;;;;10.17;7.17;;;5.50;99.90;;;;;;4737776;29;20483;-94
2021/12/26 04:44:13;;;;;;;10.53;7.67;;;5.40;99.90;;;;;;4738294;29;20220;-93
2021/12/26 04:46:39;;;;;;;9.67;8.03;;;5.50;99.90;;;;;;4722774;29;20475;-93
2021/12/26 04:49:05;;;;;;;10.30;7.03;;;5.50;99.90;;;;;;4736417;29;20209;-94
2021/12/26 04:51:34;;;;;;;9.53;7.67;;;5.50;99.90;;;;;;4738225;29;20466;-93
2021/12/26 04:54:19;;;;;;;9.97;8.80;;;5.50;99.90;;;;;;4740265;29;20296;-93
2021/12/26 04:56:45;;;;;;;10.97;8.00;;;5.60;99.90;;;;;;4740029;29;20485;-94
2021/12/26 04:59:11;;;;;;;11.40;9.50;;;5.60;99.90;;;;;;4733958;29;20245;-93
2021/12/26 05:01:37;;;;;;;10.03;7.60;;;5.60;99.90;;;;;;4727434;29;20305;-93
2021/12/26 05:04:06;;;;;;;10.77;8.10;;;5.70;99.90;;;;;;4735440;29;20514;-93
2021/12/26 05:06:32;;;;;;;11.80;7.70;;;5.50;99.90;;;;;;4720644;29;20527;-92
2021/12/26 05:09:06;;;;;;;10.70;7.87;;;5.40;99.90;;;;;;4736692;29;21193;-93
2021/12/26 05:11:41;;;;;;;10.37;8.27;;;5.50;99.90;;;;;;4737037;29;20458;-92
2021/12/26 05:14:13;;;;;;;10.53;7.60;;;5.60;99.90;;;;;;4724383;29;20459;-92
2021/12/26 05:16:46;;;;;;;10.00;8.37;;;5.60;99.90;;;;;;4737250;29;20808;-93
2021/12/26 05:19:12;;;;;;;11.77;8.80;;;5.60;99.90;;;;;;4724128;29;20475;-93
2021/12/26 05:21:38;;;;;;;11.40;8.13;;;5.50;99.90;;;;;;4735435;29;20687;-93
2021/12/26 05:24:04;;;;;;;10.83;8.03;;;5.40;99.90;;;;;;4736036;29;20206;-92
2021/12/26 05:26:29;;;;;;;13.30;8.43;;;5.30;99.90;;;;;;4736542;29;21231;-93
2021/12/26 05:28:55;;;;;;;12.50;8.60;;;5.30;99.90;;;;;;4729619;29;20557;-92
2021/12/26 05:31:24;;;;;;;12.47;9.00;;;5.30;99.90;;;;;;4735820;29;20244;-92
2021/12/26 05:33:53;;;;;;;11.17;8.43;;;5.30;99.90;;;;;;4735944;29;20216;-92
2021/12/26 05:36:18;;;;;;;13.57;8.87;;;5.30;99.90;;;;;;4721732;29;20567;-92
2021/12/26 05:41:24;;;;;;;12.63;8.57;;;5.20;99.90;;;;;;4734758;29;20230;-92
2021/12/26 05:43:50;;;;;;;14.37;10.00;;;5.30;99.90;;;;;;4727730;29;20467;-92
2021/12/26 05:46:16;;;;;;;12.80;8.87;;;5.30;99.90;;;;;;4735572;29;20855;-92
2021/12/26 05:48:42;;;;;;;11.50;9.10;;;5.30;99.90;;;;;;4735867;29;20231;-92
2021/12/26 05:51:08;;;;;;;14.27;8.33;;;5.30;99.90;;;;;;4734926;29;20553;-93
2021/12/26 05:53:36;;;;;;;10.57;8.80;;;5.30;99.90;;;;;;4722603;29;20591;-92
2021/12/26 05:56:11;;;;;;;12.20;9.27;;;5.30;99.90;;;;;;4735043;29;20592;-92
2021/12/26 05:58:36;;;;;;;11.57;8.27;;;5.30;99.90;;;;;;4728536;29;20582;-92
2021/12/26 06:01:03;;;;;;;10.97;8.80;;;5.40;99.90;;;;;;4721860;29;20205;-92
2021/12/26 06:03:31;;;;;;;10.10;8.60;;;5.40;99.90;;;;;;4733410;29;20225;-92
2021/12/26 06:06:09;;;;;;;9.77;7.57;;;5.50;99.90;;;;;;4724210;29;20475;-92
2021/12/26 06:11:24;;;;;;;10.70;8.33;;;5.10;99.90;;;;;;4737385;29;20660;-92
2021/12/26 06:13:49;;;;;;;14.73;9.60;;;5.00;99.90;;;;;;4736729;29;21087;-93
2021/12/26 06:16:15;;;;;;;13.63;9.37;;;4.90;99.90;;;;;;4726753;29;20211;-93
2021/12/26 06:18:41;;;;;;;14.20;9.53;;;4.90;99.90;;;;;;4727373;29;20609;-93
2021/12/26 06:21:06;;;;;;;12.50;9.27;;;5.00;99.90;;;;;;4734341;29;20814;-93
2021/12/26 06:23:32;;;;;;;12.10;8.63;;;5.10;99.90;;;;;;4725639;29;20812;-92
2021/12/26 06:25:58;;;;;;;13.30;9.33;;;5.10;99.90;;;;;;4723735;29;20312;-92
2021/12/26 06:28:26;;;;;;;12.20;8.90;;;5.10;99.90;;;;;;4715585;29;20616;-92
2021/12/26 06:30:52;;;;;;;10.57;8.20;;;5.10;99.90;;;;;;4734761;29;20246;-92
2021/12/26 06:33:18;;;;;;;12.83;9.17;;;5.10;99.90;;;;;;4724732;29;20559;-92
2021/12/26 06:35:44;;;;;;;10.87;8.10;;;5.10;99.90;;;;;;4724329;29;20300;-91
2021/12/26 06:38:09;;;;;;;12.03;8.70;;;5.20;99.90;;;;;;4722216;29;20233;-91
2021/12/26 06:40:35;;;;;;;13.50;8.53;;;5.30;99.90;;;;;;4719756;29;20594;-91
2021/12/26 06:43:01;;;;;;;10.20;7.70;;;5.30;99.90;;;;;;4714143;29;20238;-92
2021/12/26 06:45:27;;;;;;;12.17;8.03;;;5.20;99.90;;;;;;4724066;29;20494;-92
2021/12/26 06:47:55;;;;;;;14.97;10.20;;;5.10;99.90;;;;;;4721523;29;20466;-92
2021/12/26 06:50:22;;;;;;;12.53;9.03;;;5.00;99.90;;;;;;4728351;29;21702;-92
2021/12/26 06:52:48;;;;;;;13.83;9.47;;;5.00;99.90;;;;;;4733123;29;20456;-92
2021/12/26 06:55:14;;;;;;;11.93;8.53;;;5.00;99.90;;;;;;4731024;29;21594;-92
2021/12/26 06:57:40;;;;;;;12.13;8.20;;;5.10;99.90;;;;;;4718543;29;20504;-92
2021/12/26 07:00:12;;;;;;;12.23;9.33;;;5.20;99.90;;;;;;4732615;29;20472;-91
2021/12/26 07:02:41;;;;;;;13.70;9.80;;;5.20;99.90;;;;;;4721340;29;20489;-91
2021/12/26 07:05:14;;;;;;;11.37;7.90;;;5.10;99.90;;;;;;4733420;29;21503;-93
2021/12/26 07:07:48;;;;;;;10.40;7.67;;;5.10;99.90;;;;;;4735630;29;20459;-92
2021/12/26 07:10:14;;;;;;;11.33;8.23;;;5.20;99.90;;;;;;4729480;29;20462;-92
2021/12/26 07:12:40;;;;;;;12.43;8.63;;;5.20;99.90;;;;;;4721607;29;20874;-92
2021/12/26 07:15:07;;;;;;;11.90;8.77;;;5.20;99.90;;;;;;4732176;29;21205;-92
2021/12/26 07:17:33;;;;;;;11.03;8.53;;;5.10;99.90;;;;;;4726086;29;20474;-92
2021/12/26 07:19:59;;;;;;;11.80;8.50;;;5.10;99.90;;;;;;4723377;29;20577;-92
2021/12/26 07:22:24;;;;;;;11.27;8.80;;;5.10;99.90;;;;;;4734878;29;20839;-92
2021/12/26 07:24:50;;;;;;;11.00;8.40;;;5.00;99.90;;;;;;4720263;29;20308;-92
2021/12/26 07:27:17;;;;;;;10.13;8.23;;;5.20;99.90;;;;;;4733360;29;20683;-92
2021/12/26 07:29:43;;;;;;;10.77;8.53;;;5.20;99.90;;;;;;4722329;29;20493;-92
2021/12/26 07:32:10;;;;;;;9.90;7.40;;;5.20;99.90;;;;;;4737546;29;21015;-92
2021/12/26 07:34:37;;;;;;;10.63;8.60;;;5.20;99.90;;;;;;4723581;29;20693;-93
2021/12/26 07:37:11;;;;;;;11.57;8.17;;;5.20;99.90;;;;;;4729303;29;21159;-93
2021/12/26 07:39:37;;;;;;;11.13;9.13;;;5.30;99.90;;;;;;4735922;29;20624;-93
2021/12/26 07:42:04;;;;;;;10.30;7.80;;;5.20;99.90;;;;;;4731603;29;20502;-92
2021/12/26 07:44:29;;;;;;;11.73;8.27;;;5.30;99.90;;;;;;4723560;29;20489;-93
2021/12/26 07:46:56;;;;;;;9.97;7.70;;;5.40;99.90;;;;;;4726345;29;20888;-92
2021/12/26 07:49:35;;;;;;;10.50;8.40;;;5.50;99.90;;;;;;4724328;29;22429;-94
2021/12/26 07:52:01;;;;;;;11.47;7.90;;;5.40;99.90;;;;;;4737929;29;21077;-94
2021/12/26 07:54:27;;;;;;;11.47;9.00;;;5.40;99.90;;;;;;4725194;29;21148;-91
2021/12/26 07:57:01;;;;;;;12.13;8.53;;;5.30;99.90;;;;;;4729505;29;21083;-94
2021/12/26 07:59:37;;;;;;;12.20;9.53;;;5.30;99.90;;;;;;4745890;29;20213;-96
2021/12/26 08:02:06;;;;;;;12.33;9.27;;;5.30;99.90;;;;;;4750964;29;20533;-94
2021/12/26 08:04:31;;;;;;;11.40;8.40;;;5.30;99.90;;;;;;4746116;29;20825;-92
2021/12/26 08:07:00;;;;;;;10.73;7.30;;;5.40;99.90;;;;;;4742775;29;20520;-94
2021/12/26 08:09:26;;;;;;;10.63;7.90;;;5.60;99.90;;;;;;4745831;29;20771;-93
2021/12/26 08:11:52;;;;;;;12.80;8.90;;;5.60;99.90;;;;;;4725944;29;20884;-93
2021/12/26 08:14:18;;;;;;;9.27;7.17;;;5.60;99.90;;;;;;4742306;29;21654;-93
2021/12/26 08:16:44;;;;;;;11.57;8.70;;;5.60;99.90;;;;;;4746111;29;20689;-95
2021/12/26 08:19:11;;;;;;;11.33;8.50;;;5.70;99.90;;;;;;4742505;29;20465;-91
2021/12/26 08:21:37;;;;;;;11.97;7.70;;;5.80;99.90;;;;;;4722845;29;21126;-95
2021/12/26 08:24:03;;;;;;;10.47;7.50;;;5.70;99.90;;;;;;4726964;29;20463;-93
2021/12/26 08:26:33;;;;;;;10.83;8.40;;;5.60;99.90;;;;;;4743171;29;20206;-94
2021/12/26 08:29:00;;;;;;;11.83;8.63;;;5.60;99.90;;;;;;4741922;29;20463;-93
2021/12/26 08:31:26;;;;;;;9.70;7.90;;;5.60;99.90;;;;;;4732696;29;20553;-90
2021/12/26 08:33:52;;;;;;;10.80;7.90;;;5.80;99.90;;;;;;4725594;29;20470;-93
2021/12/26 08:36:19;;;;;;;13.23;8.67;;;5.70;99.90;;;;;;4718108;29;21548;-93
2021/12/26 08:38:45;;;;;;;10.40;8.60;;;5.70;99.90;;;;;;4720459;29;20471;-92
2021/12/26 08:41:14;;;;;;;11.50;8.33;;;5.60;99.90;;;;;;4730856;29;20566;-94
2021/12/26 08:43:43;;;;;;;12.10;8.20;;;5.60;99.90;;;;;;4720007;29;20671;-91
2021/12/26 08:46:15;;;;;;;11.90;8.90;;;5.70;99.90;;;;;;4725777;29;20481;-91
2021/12/26 08:49:10;;;;;;;14.33;10.27;;;5.80;99.90;;;;;;4725219;29;21521;-93
2021/12/26 08:51:46;;;;;;;12.30;8.87;;;5.70;99.90;;;;;;4731259;29;21583;-91
2021/12/26 08:54:29;;;;;;;;;;;;;;;;;;;;;
2021/12/26 08:57:00;;;;;;;9.67;7.40;;;5.80;99.90;;;;;;4734717;29;20475;-91
2021/12/26 08:59:32;;;;;;;10.80;8.20;;;5.80;99.90;;;;;;4719105;29;20562;-92
2021/12/26 09:02:03;;;;;;;12.20;9.90;;;5.90;99.90;;;;;;4730301;29;20511;-91
2021/12/26 09:04:36;;;;;;;12.87;9.30;;;5.70;99.90;;;;;;4742167;29;20473;-91
2021/12/26 09:07:02;;;;;;;12.90;9.33;;;5.70;99.90;;;;;;4744018;29;20461;-91
2021/12/26 09:09:31;;;;;;;22.63;20.30;;;5.80;99.90;;;;;;4730093;29;20479;-91
2021/12/26 09:12:12;;;;;;;11.80;10.40;;;5.80;99.90;;;;;;4735944;29;20505;-91
2021/12/26 09:14:41;;;;;;;15.60;13.37;;;5.90;99.90;;;;;;4745420;29;20497;-92
2021/12/26 09:17:09;;;;;;;11.70;9.97;;;6.10;99.90;;;;;;4743499;29;20471;-91
2021/12/26 09:19:35;;;;;;;9.90;7.50;;;6.30;99.90;;;;;;4722273;29;21231;-94
2021/12/26 09:22:15;;;;;;;10.90;8.20;;;6.40;99.90;;;;;;4720127;29;21025;-92
2021/12/26 09:24:42;;;;;;;9.83;8.63;;;6.60;99.90;;;;;;4731831;29;21319;-93
2021/12/26 09:27:22;;;;;;;10.57;8.53;;;6.60;99.90;;;;;;4733193;29;20446;-91
2021/12/26 09:33:00;;;;;;;10.90;9.00;;;6.60;99.90;;;;;;4741818;29;20470;-91
2021/12/26 09:35:40;;;;;;;;;;;;;;;;;;;;;
2021/12/26 09:38:34;;;;;;;9.60;8.50;;;6.90;99.90;;;;;;4749265;29;20477;-90
2021/12/26 09:41:09;;;;;;;10.57;9.03;;;7.00;99.90;;;;;;4742328;29;20481;-90
2021/12/26 09:47:33;;;;;;;;;;;;;;;;;;;;;
2021/12/26 09:50:34;;;;;;;;;;;;;;;;;;;;;
2021/12/26 09:53:23;;;;;;;;;;;;;;;;;;;;;
2021/12/26 09:56:21;;;;;;;10.30;9.03;;;7.60;99.90;;;;;;4745721;29;20465;-92
2021/12/26 09:59:05;;;;;;;;;;;;;;;;;;;;;
2021/12/26 10:02:24;;;;;;;;;;;;;;;;;;;;;
2021/12/26 10:05:15;;;;;;;9.67;8.00;;;7.30;99.90;;;;;;4747545;29;22117;-91
2021/12/26 10:08:21;;;;;;;;;;;;;;;;;;;;;
2021/12/26 10:11:05;;;;;;;8.50;7.60;;;7.30;99.90;;;;;;4726349;29;20474;-91
2021/12/26 10:13:45;;;;;;;12.30;9.60;;;7.20;99.90;;;;;;4726437;29;20510;-92
2021/12/26 10:16:16;;;;;;;11.73;9.17;;;7.00;99.90;;;;;;4737331;29;20511;-92
2021/12/26 10:18:43;;;;;;;10.50;8.87;;;7.00;99.90;;;;;;4732722;29;20449;-91
2021/12/26 10:21:35;;;;;;;14.67;10.43;;;7.00;99.90;;;;;;4732527;29;20604;-91
2021/12/26 10:24:20;;;;;;;11.77;8.83;;;7.10;99.90;;;;;;4746904;29;21062;-90
2021/12/26 10:27:09;;;;;;;12.17;8.80;;;7.10;99.90;;;;;;4743770;29;20469;-88
2021/12/26 10:30:00;;;;;;;11.20;9.07;;;7.20;99.90;;;;;;4747190;29;20462;-90
2021/12/26 10:32:32;;;;;;;10.23;7.93;;;7.30;99.90;;;;;;4732447;29;20985;-89
2021/12/26 10:35:20;;;;;;;9.77;8.43;;;7.70;99.90;;;;;;4738608;29;20586;-91
2021/12/26 10:37:50;;;;;;;9.23;8.27;;;8.00;99.90;;;;;;4743508;29;20516;-89
2021/12/26 10:40:32;;;;;;;9.47;8.23;;;8.10;99.90;;;;;;4746259;29;20459;-89
2021/12/26 10:43:01;;;;;;;8.20;7.20;;;8.20;99.90;;;;;;4740472;29;21074;-90
2021/12/26 10:45:30;;;;;;;7.80;6.93;;;8.40;99.90;;;;;;4722629;29;20774;-90
2021/12/26 10:48:07;;;;;;;7.60;6.77;;;8.70;99.90;;;;;;4734557;29;20496;-90
2021/12/26 10:50:36;;;;;;;8.83;7.93;;;8.90;99.90;;;;;;4734958;29;20502;-91
2021/12/26 10:55:51;;;;;;;7.80;7.00;;;9.00;99.90;;;;;;4735140;29;20481;-90
2021/12/26 10:58:20;;;;;;;7.90;6.70;;;9.10;99.90;;;;;;4727419;29;20474;-90
2021/12/26 11:00:49;;;;;;;8.77;7.57;;;9.10;99.90;;;;;;4732053;29;20521;-90
2021/12/26 11:03:27;;;;;;;7.90;7.10;;;9.00;99.90;;;;;;4720019;29;21024;-90
2021/12/26 11:05:55;;;;;;;9.60;8.10;;;8.80;99.90;;;;;;4738078;29;20524;-90
2021/12/26 11:08:42;;;;;;;9.50;8.13;;;8.50;99.90;;;;;;4722598;29;21062;-90
2021/12/26 11:11:11;;;;;;;12.93;9.67;;;8.10;99.90;;;;;;4721073;29;21118;-90
2021/12/26 11:13:37;;;;;;;13.60;10.07;;;7.70;99.90;;;;;;4720992;29;21185;-89
2021/12/26 11:16:06;;;;;;;10.20;9.10;;;7.50;99.90;;;;;;4721078;29;20965;-90
2021/12/26 11:18:33;;;;;;;12.13;9.83;;;7.50;99.90;;;;;;4734006;29;20729;-90
2021/12/26 11:21:08;;;;;;;12.60;10.73;;;7.70;99.90;;;;;;4735500;29;20455;-90
2021/12/26 11:23:38;;;;;;;11.90;10.60;;;7.70;99.90;;;;;;4736734;29;20638;-90
2021/12/26 11:26:10;;;;;;;15.30;10.73;;;7.60;99.90;;;;;;4737077;29;21887;-90
2021/12/26 11:28:40;;;;;;;20.10;15.00;;;7.70;99.90;;;;;;4740432;29;20517;-90
2021/12/26 11:31:13;;;;;;;15.23;11.57;;;8.00;99.90;;;;;;4719091;29;20972;-90
2021/12/26 11:33:40;;;;;;;10.90;9.60;;;8.20;99.90;;;;;;4738668;29;21076;-90
2021/12/26 11:36:11;;;;;;;8.87;7.97;;;8.40;99.90;;;;;;4727282;29;20470;-90
2021/12/26 11:39:00;;;;;;;6.67;5.97;;;8.70;99.90;;;;;;4732899;29;21576;-90
2021/12/26 11:41:41;;;;;;;7.97;6.80;;;9.20;99.90;;;;;;4732291;29;21012;-89
2021/12/26 11:44:46;;;;;;;7.13;6.23;;;9.80;99.90;;;;;;4731216;29;20465;-91
2021/12/26 11:47:40;;;;;;;7.57;6.77;;;9.80;99.90;;;;;;4733186;29;20528;-88
2021/12/26 11:50:24;;;;;;;9.57;7.20;;;9.70;99.90;;;;;;4721376;29;20454;-90
2021/12/26 11:53:08;;;;;;;8.23;7.40;;;9.50;99.90;;;;;;4730980;29;20536;-88
2021/12/26 11:55:52;;;;;;;9.00;8.10;;;9.30;99.90;;;;;;4738153;29;20483;-90
2021/12/26 11:58:45;;;;;;;115.23;103.37;;;9.20;99.90;;;;;;4742444;29;22404;-90
2021/12/26 12:01:16;;;;;;;10.03;8.03;;;9.50;99.90;;;;;;4723674;29;20877;-90
2021/12/26 12:03:42;;;;;;;6.93;6.00;;;9.70;99.90;;;;;;4719213;29;21210;-90
2021/12/26 12:06:25;;;;;;;6.63;5.93;;;9.90;99.90;;;;;;4722589;29;21017;-91
2021/12/26 12:08:51;;;;;;;6.60;5.90;;;10.90;99.90;;;;;;4720278;29;20245;-89
2021/12/26 12:11:19;;;;;;;6.63;5.80;;;12.80;99.90;;;;;;4731576;29;21399;-91
2021/12/26 12:13:48;;;;;;;7.17;6.57;;;13.60;99.90;;;;;;4721119;29;20776;-89
2021/12/26 12:16:22;;;;;;;7.53;6.73;;;13.40;99.90;;;;;;4743171;29;21063;-90
2021/12/26 12:18:48;;;;;;;7.17;6.47;;;13.00;99.90;;;;;;4744259;29;20451;-89
2021/12/26 12:21:21;;;;;;;6.60;6.00;;;12.90;99.90;;;;;;4736618;29;20529;-90
2021/12/26 12:24:07;;;;;;;8.03;7.33;;;13.10;99.90;;;;;;4742799;29;20233;-90
2021/12/26 12:26:47;;;;;;;8.20;7.40;;;12.70;99.90;;;;;;4746211;29;20471;-90
2021/12/26 12:29:21;;;;;;;7.00;6.40;;;12.40;99.90;;;;;;4730545;29;22301;-89
2021/12/26 12:31:47;;;;;;;6.67;5.60;;;12.50;99.90;;;;;;4743039;29;20515;-90
2021/12/26 12:34:14;;;;;;;6.80;6.10;;;12.40;99.90;;;;;;4735354;29;21200;-90
2021/12/26 12:36:42;;;;;;;6.93;6.23;;;12.00;99.90;;;;;;4747905;29;21699;-89
2021/12/26 12:39:23;;;;;;;6.90;6.30;;;11.40;99.90;;;;;;4737151;29;20727;-90
2021/12/26 12:41:51;;;;;;;7.70;6.73;;;10.80;99.90;;;;;;4734086;29;20574;-90
2021/12/26 12:44:36;;;;;;;6.97;6.37;;;10.40;99.90;;;;;;4733143;29;20776;-89
2021/12/26 12:47:07;;;;;;;8.43;7.60;;;10.10;99.90;;;;;;4746913;29;20608;-89
2021/12/26 12:49:50;;;;;;;9.27;7.70;;;9.90;99.90;;;;;;4747004;29;20900;-89
2021/12/26 12:52:39;;;;;;;7.80;6.63;;;9.70;99.90;;;;;;4744049;29;20558;-90
2021/12/26 12:55:18;;;;;;;7.63;6.63;;;9.60;99.90;;;;;;4730761;29;20905;-89
2021/12/26 12:57:53;;;;;;;6.47;5.60;;;9.50;99.90;;;;;;4733629;29;20523;-90
2021/12/26 13:00:24;;;;;;;7.63;6.63;;;9.50;99.90;;;;;;4732490;29;20989;-89
2021/12/26 13:02:51;;;;;;;7.67;6.87;;;9.60;99.90;;;;;;4744933;29;20832;-90
2021/12/26 13:05:27;;;;;;;7.27;6.00;;;9.60;99.90;;;;;;4747035;29;20464;-89
2021/12/26 13:08:08;;;;;;;8.87;7.97;;;9.80;99.90;;;;;;4744121;29;21289;-89
2021/12/26 13:10:35;;;;;;;8.47;7.60;;;9.80;99.90;;;;;;4730900;29;20483;-90
2021/12/26 13:13:05;;;;;;;7.90;7.10;;;9.80;99.90;;;;;;4742444;29;21046;-90
2021/12/26 13:15:32;;;;;;;8.60;7.70;;;9.70;99.90;;;;;;4744633;29;20473;-90
2021/12/26 13:18:03;;;;;;;8.17;7.37;;;9.60;99.90;;;;;;4732677;29;20501;-90
2021/12/26 13:20:29;;;;;;;8.40;7.50;;;9.60;99.90;;;;;;4734722;29;20448;-90
2021/12/26 13:22:58;;;;;;;7.33;6.63;;;9.60;99.90;;;;;;4742842;29;20829;-90
2021/12/26 13:25:29;;;;;;;8.23;7.43;;;9.70;99.90;;;;;;4747274;29;20589;-90
2021/12/26 13:27:56;;;;;;;8.80;7.73;;;9.70;99.90;;;;;;4743641;29;20464;-90
2021/12/26 13:30:27;;;;;;;8.70;7.70;;;9.70;99.90;;;;;;4744726;29;20466;-90
2021/12/26 13:32:59;;;;;;;8.57;7.33;;;9.70;99.90;;;;;;4744373;29;21121;-89
2021/12/26 13:35:35;;;;;;;9.27;8.20;;;9.60;99.90;;;;;;4733232;29;20490;-90
2021/12/26 13:38:02;;;;;;;9.33;8.27;;;9.50;99.90;;;;;;4736625;29;20588;-90
2021/12/26 13:40:43;;;;;;;9.13;8.03;;;9.50;99.90;;;;;;4745006;29;20458;-89
2021/12/26 13:43:09;;;;;;;8.53;7.63;;;9.30;99.90;;;;;;4743202;29;20860;-89
2021/12/26 13:45:39;;;;;;;8.30;7.53;;;9.20;99.90;;;;;;4728013;29;21292;-90